Time;durP1;ratioP1;P1;durP2;ratioP2;P2;SDS_P1;SDS_P2;PMS_P1;PMS_P2;Temp;Humidity;BMP_temperature;BMP_pressure;BME280_temperature;BME280_humidity;BME280_pressure;Samples;Min_cycle;Max_cycle;Signal;HPM_P1;HPM_P2
2022/10/23 00:02:01;;;;;;;5.03;2.08;;;14.40;99.90;;;;;;936033;151;27432;-80
2022/10/23 00:04:26;;;;;;;4.20;1.90;;;14.40;99.90;;;;;;936633;148;27456;-80
2022/10/23 00:06:52;;;;;;;3.93;2.30;;;14.40;99.90;;;;;;935794;149;27388;-80
2022/10/23 00:09:19;;;;;;;4.60;1.72;;;14.40;99.90;;;;;;935394;151;27318;-80
2022/10/23 00:11:49;;;;;;;5.03;2.40;;;14.30;99.90;;;;;;934804;148;27340;-80
2022/10/23 00:14:15;;;;;;;6.03;2.27;;;14.30;99.90;;;;;;935284;148;27478;-80
2022/10/23 00:16:41;;;;;;;4.87;2.20;;;14.30;99.90;;;;;;935008;149;27261;-80
2022/10/23 00:19:08;;;;;;;6.93;2.10;;;14.30;99.90;;;;;;933658;151;27366;-80
2022/10/23 00:21:34;;;;;;;3.33;2.30;;;14.30;99.90;;;;;;934466;148;27319;-80
2022/10/23 00:24:01;;;;;;;2.53;2.33;;;14.30;99.90;;;;;;937920;149;27426;-80
2022/10/23 00:26:28;;;;;;;6.57;2.50;;;14.20;99.90;;;;;;934021;149;27464;-81
2022/10/23 00:28:54;;;;;;;4.37;2.33;;;14.20;99.90;;;;;;921180;151;27483;-80
2022/10/23 00:31:21;;;;;;;2.63;1.90;;;14.20;99.90;;;;;;936855;151;27344;-80
2022/10/23 00:33:47;;;;;;;2.70;2.10;;;14.20;99.90;;;;;;935692;149;27450;-80
2022/10/23 00:36:14;;;;;;;2.70;2.20;;;14.20;99.90;;;;;;936004;148;27333;-80
2022/10/23 00:38:41;;;;;;;2.37;2.07;;;14.20;99.90;;;;;;935407;151;27385;-80
2022/10/23 00:41:07;;;;;;;5.23;2.20;;;14.20;99.90;;;;;;935829;148;27357;-80
2022/10/23 00:43:34;;;;;;;3.50;2.15;;;14.10;99.90;;;;;;934605;148;27370;-80
2022/10/23 00:46:00;;;;;;;3.10;2.70;;;14.10;99.90;;;;;;934490;148;27428;-80
2022/10/23 00:48:27;;;;;;;6.62;2.50;;;14.10;99.90;;;;;;918240;150;27335;-80
2022/10/23 00:50:54;;;;;;;3.10;2.40;;;14.10;99.90;;;;;;933737;148;27302;-80
2022/10/23 00:53:20;;;;;;;2.50;2.00;;;14.10;99.90;;;;;;936660;148;27501;-80
2022/10/23 00:55:47;;;;;;;2.43;2.20;;;14.10;99.90;;;;;;934599;148;27370;-80
2022/10/23 00:58:13;;;;;;;5.03;2.37;;;14.10;99.90;;;;;;934384;148;27339;-80
2022/10/23 01:00:42;;;;;;;3.75;2.62;;;14.10;99.90;;;;;;934826;148;27285;-80
2022/10/23 01:03:09;;;;;;;7.00;2.50;;;14.10;99.90;;;;;;933941;148;27374;-80
2022/10/23 01:05:36;;;;;;;4.60;2.90;;;14.10;99.90;;;;;;933015;148;27447;-81
2022/10/23 01:08:02;;;;;;;2.57;2.13;;;14.00;99.90;;;;;;933342;148;27276;-80
2022/10/23 01:10:29;;;;;;;2.10;1.90;;;14.00;99.90;;;;;;934072;148;27311;-80
2022/10/23 01:13:01;;;;;;;2.53;2.03;;;14.00;99.90;;;;;;928030;148;27354;-80
2022/10/23 01:15:37;;;;;;;3.57;2.37;;;14.00;99.90;;;;;;935320;148;27305;-80
2022/10/23 01:18:21;;;;;;;5.30;2.63;;;13.90;99.90;;;;;;938422;148;27759;-80
2022/10/23 01:20:53;;;;;;;2.37;2.10;;;13.90;99.90;;;;;;934159;148;27328;-80
2022/10/23 01:23:39;;;;;;;5.73;2.83;;;13.90;99.90;;;;;;934862;148;27317;-80
2022/10/23 01:26:14;;;;;;;4.23;2.20;;;13.90;99.90;;;;;;934563;148;27334;-81
2022/10/23 01:28:50;;;;;;;3.67;2.20;;;13.90;99.90;;;;;;932078;148;27330;-80
2022/10/23 01:31:17;;;;;;;3.07;2.23;;;13.80;99.90;;;;;;933525;148;27365;-80
2022/10/23 01:33:43;;;;;;;4.57;2.77;;;13.80;99.90;;;;;;933749;148;27337;-80
2022/10/23 01:36:10;;;;;;;3.33;2.47;;;13.80;99.90;;;;;;932281;148;27331;-80
2022/10/23 01:38:46;;;;;;;2.73;2.13;;;13.80;99.90;;;;;;933751;148;27444;-80
2022/10/23 01:41:12;;;;;;;2.70;2.00;;;13.80;99.90;;;;;;932655;148;27655;-81
2022/10/23 01:43:42;;;;;;;3.70;2.07;;;13.80;99.90;;;;;;932887;148;27278;-80
2022/10/23 01:46:08;;;;;;;3.55;2.08;;;13.80;99.90;;;;;;949862;146;27461;-80
2022/10/23 01:48:35;;;;;;;2.27;2.00;;;13.80;99.90;;;;;;951926;146;27361;-80
2022/10/23 01:51:02;;;;;;;5.43;2.17;;;13.80;99.90;;;;;;951132;146;27356;-80
2022/10/23 01:53:29;;;;;;;2.20;1.85;;;13.80;99.90;;;;;;950031;146;27335;-80
2022/10/23 01:55:55;;;;;;;1.80;1.70;;;13.80;99.90;;;;;;950800;146;27313;-81
2022/10/23 01:58:21;;;;;;;3.93;2.00;;;13.80;99.90;;;;;;950404;146;27423;-80
2022/10/23 02:00:48;;;;;;;5.07;1.90;;;13.80;99.90;;;;;;950460;146;27368;-80
2022/10/23 02:03:15;;;;;;;2.83;1.80;;;13.80;99.90;;;;;;941465;150;27305;-80
2022/10/23 02:05:41;;;;;;;4.23;2.10;;;13.90;99.90;;;;;;943266;150;27384;-80
2022/10/23 02:08:08;;;;;;;3.80;2.00;;;13.90;99.90;;;;;;939089;150;27786;-80
2022/10/23 02:10:34;;;;;;;2.25;2.05;;;13.80;99.90;;;;;;940340;150;27359;-80
2022/10/23 02:13:01;;;;;;;2.67;1.80;;;13.90;99.90;;;;;;941323;150;27465;-80
2022/10/23 02:15:30;;;;;;;4.30;1.95;;;13.90;99.90;;;;;;935320;149;27425;-80
2022/10/23 02:18:18;;;;;;;5.27;2.00;;;13.90;99.90;;;;;;951086;146;27315;-80
2022/10/23 02:20:48;;;;;;;1.87;1.77;;;13.90;99.90;;;;;;950600;146;27287;-80
2022/10/23 02:23:32;;;;;;;3.80;1.83;;;13.90;99.90;;;;;;950639;146;27323;-80
2022/10/23 02:25:59;;;;;;;4.43;2.07;;;13.90;99.90;;;;;;949919;146;27665;-80
2022/10/23 02:28:27;;;;;;;3.40;1.90;;;13.90;99.90;;;;;;949678;146;27465;-80
2022/10/23 02:30:52;;;;;;;4.37;1.90;;;13.90;99.90;;;;;;951619;146;27328;-80
2022/10/23 02:33:19;;;;;;;3.77;1.80;;;13.80;99.90;;;;;;951151;146;27405;-80
2022/10/23 02:35:46;;;;;;;2.37;1.87;;;13.80;99.90;;;;;;951066;146;27663;-80
2022/10/23 02:38:31;;;;;;;4.17;1.70;;;13.80;99.90;;;;;;929619;150;27354;-80
2022/10/23 02:41:06;;;;;;;3.97;1.83;;;13.80;99.90;;;;;;930390;149;27408;-80
2022/10/23 02:43:33;;;;;;;5.90;2.00;;;13.80;99.90;;;;;;931571;149;27386;-81
2022/10/23 02:45:59;;;;;;;8.53;1.85;;;13.80;99.90;;;;;;929516;150;27370;-80
2022/10/23 02:48:29;;;;;;;5.43;2.20;;;13.80;99.90;;;;;;953097;146;27306;-78
2022/10/23 02:51:14;;;;;;;3.23;1.70;;;13.80;99.90;;;;;;952071;146;27339;-79
2022/10/23 02:53:43;;;;;;;2.60;1.80;;;13.80;99.90;;;;;;950981;146;27352;-78
2022/10/23 02:56:12;;;;;;;2.05;1.32;;;13.80;99.90;;;;;;953653;146;27887;-78
2022/10/23 02:58:58;;;;;;;2.90;1.57;;;13.70;99.90;;;;;;941688;148;27296;-79
2022/10/23 03:01:27;;;;;;;2.83;1.57;;;13.70;99.90;;;;;;935939;149;27366;-81
2022/10/23 03:03:53;;;;;;;1.50;1.40;;;13.70;99.90;;;;;;952787;146;27394;-80
2022/10/23 03:06:20;;;;;;;2.90;1.82;;;13.70;99.90;;;;;;950479;146;27339;-80
2022/10/23 03:08:49;;;;;;;4.97;1.90;;;13.70;99.90;;;;;;952845;146;27435;-80
2022/10/23 03:11:16;;;;;;;1.67;1.43;;;13.70;99.90;;;;;;951553;146;28988;-80
2022/10/23 03:13:42;;;;;;;2.07;1.60;;;13.70;99.90;;;;;;953045;146;27320;-80
2022/10/23 03:16:09;;;;;;;3.53;1.80;;;13.70;99.90;;;;;;952015;146;27287;-80
2022/10/23 03:18:36;;;;;;;2.27;2.07;;;13.70;99.90;;;;;;945970;149;27397;-80
2022/10/23 03:21:02;;;;;;;4.67;2.10;;;13.80;99.90;;;;;;954191;146;27466;-80
2022/10/23 03:23:29;;;;;;;1.55;1.45;;;13.80;99.90;;;;;;937561;149;27382;-80
2022/10/23 03:25:55;;;;;;;2.15;1.37;;;13.80;99.90;;;;;;941078;150;27300;-80
2022/10/23 03:28:22;;;;;;;4.33;1.80;;;13.80;99.90;;;;;;940267;149;27404;-81
2022/10/23 03:30:49;;;;;;;3.85;1.42;;;13.80;99.90;;;;;;933545;149;27532;-81
2022/10/23 03:33:15;;;;;;;2.93;1.63;;;13.90;99.90;;;;;;952218;146;27441;-81
2022/10/23 03:35:42;;;;;;;2.67;1.80;;;13.90;99.90;;;;;;953874;146;27376;-80
2022/10/23 03:38:08;;;;;;;2.52;1.95;;;13.90;99.90;;;;;;955467;146;27321;-80
2022/10/23 03:40:35;;;;;;;2.75;1.80;;;14.00;99.90;;;;;;954349;146;27412;-80
2022/10/23 03:43:02;;;;;;;2.87;1.93;;;14.00;99.90;;;;;;952549;146;27335;-80
2022/10/23 03:45:29;;;;;;;4.12;1.87;;;14.00;99.90;;;;;;952214;146;27364;-80
2022/10/23 03:47:55;;;;;;;7.13;1.87;;;14.00;99.90;;;;;;950312;146;27483;-80
2022/10/23 03:50:21;;;;;;;2.02;1.82;;;14.00;99.90;;;;;;950526;146;27368;-80
2022/10/23 03:52:48;;;;;;;3.17;1.75;;;14.00;99.90;;;;;;951476;146;27326;-80
2022/10/23 03:55:14;;;;;;;2.43;1.67;;;14.10;99.90;;;;;;951728;146;27365;-80
2022/10/23 03:57:41;;;;;;;2.70;1.60;;;14.10;99.90;;;;;;952328;146;27392;-80
2022/10/23 04:00:08;;;;;;;3.42;1.67;;;14.10;99.90;;;;;;950111;146;27495;-80
2022/10/23 04:02:34;;;;;;;1.87;1.77;;;14.10;99.90;;;;;;950039;146;27350;-80
2022/10/23 04:05:01;;;;;;;3.23;1.60;;;14.10;99.90;;;;;;951376;146;27743;-80
2022/10/23 04:07:27;;;;;;;4.77;1.70;;;14.00;99.90;;;;;;950880;146;27425;-80
2022/10/23 04:09:54;;;;;;;1.93;1.73;;;14.10;99.90;;;;;;951139;146;27635;-80
2022/10/23 04:12:21;;;;;;;2.75;1.90;;;14.00;99.90;;;;;;951711;146;27345;-80
2022/10/23 04:14:47;;;;;;;2.40;1.93;;;14.10;99.90;;;;;;952549;146;27379;-80
2022/10/23 04:17:14;;;;;;;2.23;1.80;;;14.00;99.90;;;;;;937594;148;27356;-80
2022/10/23 04:19:40;;;;;;;2.70;1.73;;;14.00;99.90;;;;;;933814;149;27350;-80
2022/10/23 04:22:07;;;;;;;2.17;1.70;;;14.00;99.90;;;;;;951416;146;27411;-80
2022/10/23 04:24:34;;;;;;;5.27;2.40;;;14.00;99.90;;;;;;950140;146;27349;-80
2022/10/23 04:27:00;;;;;;;3.83;1.80;;;13.90;99.90;;;;;;952380;146;27384;-80
2022/10/23 04:29:30;;;;;;;2.20;2.10;;;13.90;99.90;;;;;;954028;146;27319;-80
2022/10/23 04:31:53;;;;;;;2.40;1.90;;;13.90;99.90;;;;;;950343;146;27415;-80
2022/10/23 04:34:20;;;;;;;2.57;2.00;;;13.90;99.90;;;;;;937300;149;27364;-80
2022/10/23 04:36:46;;;;;;;4.23;2.00;;;13.90;99.90;;;;;;934126;149;27790;-80
2022/10/23 04:39:13;;;;;;;3.37;1.87;;;13.90;99.90;;;;;;950513;146;27469;-81
2022/10/23 04:41:40;;;;;;;3.10;1.67;;;13.90;99.90;;;;;;949656;146;27453;-81
2022/10/23 04:44:06;;;;;;;2.53;2.00;;;13.80;99.90;;;;;;952649;146;27364;-80
2022/10/23 04:46:33;;;;;;;2.17;1.73;;;13.80;99.90;;;;;;945202;146;27857;-80
2022/10/23 04:48:59;;;;;;;4.60;2.17;;;13.80;99.90;;;;;;932748;148;27688;-80
2022/10/23 04:51:26;;;;;;;3.08;1.75;;;13.80;99.90;;;;;;934202;148;27414;-80
2022/10/23 04:53:53;;;;;;;2.02;1.85;;;13.80;99.90;;;;;;933151;148;27456;-80
2022/10/23 04:56:19;;;;;;;5.33;1.70;;;13.80;99.90;;;;;;935724;148;28377;-80
2022/10/23 04:58:46;;;;;;;2.47;1.72;;;13.80;99.90;;;;;;935220;148;27420;-80
2022/10/23 05:01:12;;;;;;;1.83;1.73;;;13.80;99.90;;;;;;936521;148;27277;-80
2022/10/23 05:03:39;;;;;;;2.20;1.98;;;13.70;99.90;;;;;;933653;148;27327;-80
2022/10/23 05:06:06;;;;;;;3.50;1.73;;;13.70;99.90;;;;;;933531;148;27365;-80
2022/10/23 05:08:34;;;;;;;2.63;2.00;;;13.70;99.90;;;;;;932947;148;27466;-80
2022/10/23 05:10:59;;;;;;;2.20;1.50;;;13.70;99.90;;;;;;933310;148;27330;-80
2022/10/23 05:13:25;;;;;;;1.87;1.73;;;13.70;99.90;;;;;;932940;148;27347;-80
2022/10/23 05:15:52;;;;;;;3.43;1.83;;;13.70;99.90;;;;;;933707;148;27353;-80
2022/10/23 05:18:21;;;;;;;2.75;1.77;;;13.70;99.90;;;;;;934247;148;27355;-80
2022/10/23 05:20:48;;;;;;;3.37;1.70;;;13.70;99.90;;;;;;933315;148;27444;-80
2022/10/23 05:23:15;;;;;;;5.53;2.03;;;13.70;99.90;;;;;;933381;148;27428;-80
2022/10/23 05:25:41;;;;;;;4.23;1.70;;;13.70;99.90;;;;;;933602;148;27300;-80
2022/10/23 05:28:08;;;;;;;2.13;1.67;;;13.70;99.90;;;;;;933977;148;27439;-80
2022/10/23 05:30:34;;;;;;;3.73;1.90;;;13.60;99.90;;;;;;935077;148;27434;-80
2022/10/23 05:33:01;;;;;;;1.70;1.60;;;13.70;99.90;;;;;;934617;148;27422;-80
2022/10/23 05:35:27;;;;;;;3.57;1.97;;;13.60;99.90;;;;;;921674;150;27364;-80
2022/10/23 05:37:54;;;;;;;2.13;1.70;;;13.60;99.90;;;;;;918793;151;27328;-80
2022/10/23 05:40:21;;;;;;;1.50;1.30;;;13.60;99.90;;;;;;929878;150;27326;-80
2022/10/23 05:42:47;;;;;;;1.90;1.80;;;13.50;99.90;;;;;;929395;150;27339;-80
2022/10/23 05:45:14;;;;;;;1.90;1.80;;;13.50;99.90;;;;;;928549;150;27421;-80
2022/10/23 05:47:40;;;;;;;3.40;2.13;;;13.50;99.90;;;;;;924479;150;27298;-80
2022/10/23 05:50:07;;;;;;;2.12;1.92;;;13.50;99.90;;;;;;936337;151;27338;-80
2022/10/23 05:52:34;;;;;;;3.50;1.93;;;13.50;99.90;;;;;;920768;154;27333;-80
2022/10/23 05:55:00;;;;;;;3.27;2.00;;;13.50;99.90;;;;;;924912;151;27317;-80
2022/10/23 05:57:27;;;;;;;2.63;1.80;;;13.50;99.90;;;;;;937579;151;27369;-80
2022/10/23 05:59:53;;;;;;;3.53;2.70;;;13.50;99.90;;;;;;937591;151;27370;-81
2022/10/23 06:02:20;;;;;;;3.37;2.30;;;13.50;99.90;;;;;;939146;151;27293;-81
2022/10/23 06:04:47;;;;;;;2.03;1.83;;;13.60;99.90;;;;;;938931;148;27452;-80
2022/10/23 06:07:13;;;;;;;1.90;1.80;;;13.60;99.90;;;;;;939131;148;27455;-81
2022/10/23 06:09:40;;;;;;;1.93;1.80;;;13.60;99.90;;;;;;938593;148;27416;-81
2022/10/23 06:12:06;;;;;;;5.53;2.20;;;13.60;99.90;;;;;;937556;148;27389;-81
2022/10/23 06:14:33;;;;;;;3.67;1.90;;;13.70;99.90;;;;;;938415;148;27857;-81
2022/10/23 06:17:00;;;;;;;3.80;2.17;;;13.70;99.90;;;;;;939554;151;27872;-80
2022/10/23 06:19:26;;;;;;;2.83;1.77;;;13.70;99.90;;;;;;939284;150;27438;-80
2022/10/23 06:21:53;;;;;;;2.17;1.77;;;13.70;99.90;;;;;;939642;148;27378;-80
2022/10/23 06:24:19;;;;;;;2.00;1.90;;;13.80;99.90;;;;;;939086;148;27369;-78
2022/10/23 06:26:46;;;;;;;2.73;2.10;;;13.80;99.90;;;;;;938244;148;27373;-80
2022/10/23 06:29:13;;;;;;;3.00;2.00;;;13.80;99.90;;;;;;938027;148;27631;-80
2022/10/23 06:31:39;;;;;;;3.53;1.77;;;13.80;99.90;;;;;;937210;148;27364;-80
2022/10/23 06:34:06;;;;;;;2.40;1.87;;;13.90;99.90;;;;;;938743;148;27691;-80
2022/10/23 06:36:32;;;;;;;2.97;1.90;;;13.90;99.90;;;;;;936772;148;27465;-80
2022/10/23 06:38:59;;;;;;;3.13;2.00;;;14.00;99.90;;;;;;937407;148;27486;-80
2022/10/23 06:41:25;;;;;;;1.90;1.77;;;14.00;99.90;;;;;;938807;148;27350;-80
2022/10/23 06:43:52;;;;;;;2.40;2.20;;;14.10;99.90;;;;;;922782;151;27424;-80
2022/10/23 06:46:19;;;;;;;2.03;1.83;;;14.10;99.90;;;;;;941426;148;27285;-80
2022/10/23 06:48:45;;;;;;;2.50;2.20;;;14.20;99.90;;;;;;951289;146;27392;-80
2022/10/23 06:51:12;;;;;;;2.60;2.40;;;14.30;99.90;;;;;;950015;146;27380;-80
2022/10/23 06:53:38;;;;;;;5.03;2.00;;;14.30;99.90;;;;;;951772;146;27430;-80
2022/10/23 06:56:05;;;;;;;2.70;2.23;;;14.40;99.90;;;;;;950871;146;27332;-80
2022/10/23 06:58:32;;;;;;;2.33;2.00;;;14.50;99.90;;;;;;952387;146;27392;-80
2022/10/23 07:01:01;;;;;;;5.15;2.20;;;14.70;99.90;;;;;;951065;146;27283;-80
2022/10/23 07:03:27;;;;;;;3.52;2.02;;;14.90;99.90;;;;;;952377;146;27517;-80
2022/10/23 07:05:54;;;;;;;3.20;1.80;;;15.00;99.90;;;;;;952506;146;27304;-80
2022/10/23 07:08:21;;;;;;;5.03;2.10;;;15.20;99.90;;;;;;952648;146;27329;-80
2022/10/23 07:10:47;;;;;;;2.15;1.90;;;15.40;99.90;;;;;;950958;146;27439;-80
2022/10/23 07:13:14;;;;;;;2.50;2.30;;;15.50;99.90;;;;;;950800;146;27415;-80
2022/10/23 07:15:40;;;;;;;2.30;2.10;;;15.70;99.90;;;;;;952654;146;27365;-80
2022/10/23 07:18:13;;;;;;;2.20;2.00;;;15.90;99.90;;;;;;951981;146;27474;-80
2022/10/23 07:20:34;;;;;;;2.25;2.00;;;16.20;99.90;;;;;;951120;146;27412;-80
2022/10/23 07:23:00;;;;;;;2.95;2.08;;;16.40;99.90;;;;;;951239;146;27324;-80
2022/10/23 07:25:27;;;;;;;1.77;1.67;;;16.50;99.90;;;;;;952574;146;27332;-80
2022/10/23 07:27:55;;;;;;;1.90;1.70;;;16.70;99.90;;;;;;951798;146;27389;-80
2022/10/23 07:30:20;;;;;;;1.85;1.75;;;16.90;99.90;;;;;;950887;146;27734;-80
2022/10/23 07:32:46;;;;;;;1.95;1.85;;;17.00;99.90;;;;;;950475;146;27405;-80
2022/10/23 07:35:14;;;;;;;3.62;2.08;;;17.20;99.90;;;;;;937989;149;27331;-80
2022/10/23 07:37:40;;;;;;;2.72;2.45;;;17.50;99.90;;;;;;951050;146;27444;-80
2022/10/23 07:40:06;;;;;;;3.20;2.25;;;17.70;99.90;;;;;;950302;146;27404;-80
2022/10/23 07:42:33;;;;;;;3.77;1.87;;;18.00;99.90;;;;;;950846;146;27360;-80
2022/10/23 07:44:59;;;;;;;2.27;1.80;;;18.30;99.90;;;;;;949421;146;27322;-80
2022/10/23 07:47:26;;;;;;;1.70;1.60;;;18.60;99.90;;;;;;951771;146;27869;-80
2022/10/23 07:49:53;;;;;;;3.83;1.77;;;18.90;99.90;;;;;;932873;146;27357;-80
2022/10/23 07:52:19;;;;;;;1.82;1.70;;;19.30;99.90;;;;;;932240;148;27274;-80
2022/10/23 07:54:46;;;;;;;1.70;1.60;;;19.60;99.90;;;;;;935374;148;28294;-80
2022/10/23 07:57:12;;;;;;;3.17;1.67;;;19.80;99.90;;;;;;934705;148;27367;-80
2022/10/23 07:59:39;;;;;;;3.15;1.80;;;20.10;99.70;;;;;;936119;148;27331;-80
2022/10/23 08:02:06;;;;;;;3.95;2.55;;;20.30;99.00;;;;;;932744;148;27401;-80
2022/10/23 08:04:32;;;;;;;1.75;1.65;;;20.60;98.40;;;;;;933468;148;27690;-80
2022/10/23 08:06:59;;;;;;;1.75;1.57;;;20.80;97.70;;;;;;933152;148;27350;-80
2022/10/23 08:09:25;;;;;;;2.85;1.70;;;21.10;97.20;;;;;;934555;148;27348;-80
2022/10/23 08:11:52;;;;;;;2.50;1.57;;;21.30;96.50;;;;;;936313;148;27365;-80
2022/10/23 08:14:19;;;;;;;1.95;1.45;;;21.60;95.70;;;;;;935230;148;27416;-80
2022/10/23 08:16:45;;;;;;;1.47;1.37;;;21.80;94.70;;;;;;933996;148;27409;-80
2022/10/23 08:19:12;;;;;;;2.27;1.82;;;22.10;94.10;;;;;;936015;148;27432;-80
2022/10/23 08:21:38;;;;;;;2.95;1.60;;;22.30;93.60;;;;;;934057;148;27359;-80
2022/10/23 08:24:05;;;;;;;2.22;2.00;;;22.60;92.90;;;;;;935053;148;27442;-80
2022/10/23 08:26:31;;;;;;;2.12;1.87;;;22.90;92.00;;;;;;936594;148;27302;-80
2022/10/23 08:28:58;;;;;;;2.33;1.60;;;23.10;91.20;;;;;;933824;148;27431;-80
2022/10/23 08:31:25;;;;;;;5.08;1.60;;;23.40;90.40;;;;;;933471;148;27309;-80
2022/10/23 08:33:51;;;;;;;1.85;1.75;;;23.60;88.20;;;;;;933422;148;27380;-80
2022/10/23 08:36:24;;;;;;;1.98;1.50;;;23.70;86.00;;;;;;934104;148;27440;-80
2022/10/23 08:38:52;;;;;;;1.65;1.55;;;23.80;83.60;;;;;;935553;148;27318;-80
2022/10/23 08:41:23;;;;;;;2.35;1.60;;;23.80;82.10;;;;;;935638;148;27273;-80
2022/10/23 08:43:49;;;;;;;1.70;1.60;;;23.70;80.40;;;;;;931528;148;27394;-80
2022/10/23 08:46:16;;;;;;;1.60;1.50;;;23.60;79.20;;;;;;934902;147;27350;-80
2022/10/23 08:48:42;;;;;;;3.80;1.50;;;23.40;78.60;;;;;;934017;148;27380;-80
2022/10/23 08:51:21;;;;;;;3.47;1.98;;;23.30;79.10;;;;;;934573;148;27328;-80
2022/10/23 08:54:06;;;;;;;1.40;1.30;;;23.20;79.50;;;;;;933963;148;27392;-79
2022/10/23 08:56:32;;;;;;;1.67;1.57;;;23.10;80.00;;;;;;932602;148;27468;-79
2022/10/23 08:59:27;;;;;;;3.98;1.40;;;23.00;80.00;;;;;;937196;148;27379;-78
2022/10/23 09:02:02;;;;;;;2.20;1.70;;;22.90;79.70;;;;;;921365;151;27409;-79
2022/10/23 09:04:29;;;;;;;1.45;1.35;;;22.80;79.70;;;;;;921945;151;27474;-79
2022/10/23 09:07:07;;;;;;;1.40;1.30;;;22.70;79.40;;;;;;926503;148;27302;-79
2022/10/23 09:09:52;;;;;;;2.12;1.85;;;22.60;79.40;;;;;;935896;148;27417;-79
2022/10/23 09:12:21;;;;;;;1.50;1.40;;;22.50;79.90;;;;;;934728;148;27354;-79
2022/10/23 09:15:12;;;;;;;2.58;1.40;;;22.40;80.50;;;;;;933267;148;27387;-79
2022/10/23 09:17:39;;;;;;;1.32;1.22;;;22.40;81.10;;;;;;934374;148;27508;-79
2022/10/23 09:20:17;;;;;;;1.65;1.55;;;22.40;81.90;;;;;;932476;148;27299;-79
2022/10/23 09:22:44;;;;;;;1.45;1.35;;;22.50;82.10;;;;;;931835;148;27311;-79
2022/10/23 09:25:10;;;;;;;1.70;1.60;;;22.50;82.40;;;;;;933828;148;27344;-79
2022/10/23 09:27:37;;;;;;;1.52;1.42;;;22.60;82.10;;;;;;932203;148;27336;-79
2022/10/23 09:30:03;;;;;;;1.77;1.67;;;22.60;81.40;;;;;;935588;148;27420;-79
2022/10/23 09:32:33;;;;;;;1.85;1.75;;;22.60;80.50;;;;;;933640;148;27805;-79
2022/10/23 09:34:59;;;;;;;1.50;1.40;;;22.60;80.20;;;;;;935652;148;27361;-78
2022/10/23 09:37:26;;;;;;;2.35;1.70;;;22.60;79.90;;;;;;935111;148;27410;-79
2022/10/23 09:40:11;;;;;;;1.57;1.47;;;22.50;79.70;;;;;;934682;148;27295;-79
2022/10/23 09:42:38;;;;;;;1.90;1.70;;;22.50;79.60;;;;;;934511;148;27326;-79
2022/10/23 09:45:04;;;;;;;1.62;1.40;;;22.40;79.30;;;;;;936837;148;27469;-79
2022/10/23 09:47:31;;;;;;;1.55;1.45;;;22.30;79.20;;;;;;932752;148;27341;-79
2022/10/23 09:49:58;;;;;;;1.75;1.65;;;22.20;79.40;;;;;;932791;148;27364;-79
2022/10/23 09:52:30;;;;;;;1.70;1.60;;;22.10;79.50;;;;;;932226;148;27328;-79
2022/10/23 09:54:57;;;;;;;1.57;1.47;;;22.10;79.80;;;;;;934058;148;27404;-79
2022/10/23 09:57:29;;;;;;;1.60;1.50;;;22.10;80.30;;;;;;936206;148;27473;-79
2022/10/23 10:00:14;;;;;;;1.47;1.37;;;22.00;80.80;;;;;;935136;148;27348;-79
2022/10/23 10:02:41;;;;;;;1.37;1.27;;;22.10;82.30;;;;;;933583;148;27868;-79
2022/10/23 10:05:26;;;;;;;1.60;1.50;;;22.10;81.80;;;;;;936596;148;27359;-79
2022/10/23 10:08:04;;;;;;;1.55;1.45;;;22.20;81.90;;;;;;936482;148;27405;-79
2022/10/23 10:10:33;;;;;;;1.80;1.70;;;22.30;82.10;;;;;;932738;148;27347;-79
2022/10/23 10:13:00;;;;;;;1.60;1.50;;;22.40;82.40;;;;;;933893;148;27386;-79
2022/10/23 10:15:38;;;;;;;1.22;1.22;;;22.50;82.20;;;;;;933751;148;27374;-79
2022/10/23 10:18:14;;;;;;;1.92;1.37;;;22.60;81.90;;;;;;934151;148;27339;-79
2022/10/23 10:20:53;;;;;;;1.50;1.40;;;22.70;81.10;;;;;;935185;148;27331;-79
2022/10/23 10:23:32;;;;;;;2.87;1.50;;;22.80;80.60;;;;;;932600;148;27404;-79
2022/10/23 10:26:04;;;;;;;1.42;1.32;;;22.90;80.00;;;;;;933379;148;27448;-79
2022/10/23 10:28:49;;;;;;;2.85;1.95;;;22.90;79.20;;;;;;933573;148;27472;-79
2022/10/23 10:31:33;;;;;;;2.25;1.62;;;22.90;78.70;;;;;;932666;148;27352;-79
2022/10/23 10:34:15;;;;;;;1.45;1.35;;;22.90;78.50;;;;;;935047;148;27331;-79
2022/10/23 10:36:50;;;;;;;2.83;1.42;;;22.90;78.40;;;;;;934878;148;27326;-79
2022/10/23 10:39:17;;;;;;;1.70;1.50;;;22.90;78.20;;;;;;935862;148;27524;-79
2022/10/23 10:41:44;;;;;;;1.55;1.45;;;22.80;77.60;;;;;;934203;148;27367;-79
2022/10/23 10:44:16;;;;;;;2.25;1.60;;;22.90;77.50;;;;;;933204;148;27341;-79
2022/10/23 10:46:43;;;;;;;1.87;1.72;;;22.80;77.40;;;;;;933262;148;27465;-79
2022/10/23 10:49:21;;;;;;;1.70;1.50;;;22.70;77.20;;;;;;935355;148;27251;-79
2022/10/23 10:52:03;;;;;;;1.95;1.40;;;22.70;77.30;;;;;;909895;151;27567;-79
2022/10/23 10:54:44;;;;;;;1.60;1.50;;;22.70;77.40;;;;;;933906;151;27335;-79
2022/10/23 10:57:23;;;;;;;1.42;1.32;;;22.60;77.30;;;;;;917845;150;27266;-78
2022/10/23 10:59:50;;;;;;;1.35;1.25;;;22.60;77.40;;;;;;930078;148;27975;-79
2022/10/23 11:02:25;;;;;;;1.70;1.60;;;22.60;77.50;;;;;;932229;148;27406;-79
2022/10/23 11:05:10;;;;;;;2.47;1.72;;;22.50;77.40;;;;;;933822;148;27464;-79
2022/10/23 11:07:37;;;;;;;2.85;1.67;;;22.50;77.20;;;;;;937900;148;27367;-79
2022/10/23 11:10:04;;;;;;;2.15;1.50;;;22.40;77.20;;;;;;933022;148;27375;-79
2022/10/23 11:12:30;;;;;;;1.65;1.45;;;22.40;77.30;;;;;;929613;148;27402;-79
2022/10/23 11:14:56;;;;;;;1.85;1.72;;;22.30;77.20;;;;;;935132;148;27319;-79
2022/10/23 11:17:26;;;;;;;1.70;1.60;;;22.20;77.40;;;;;;935520;148;27436;-79
2022/10/23 11:20:04;;;;;;;1.55;1.45;;;22.10;76.80;;;;;;931805;148;27444;-79
2022/10/23 11:22:37;;;;;;;1.45;1.30;;;22.10;76.90;;;;;;935276;147;27362;-80
2022/10/23 11:25:42;;;;;;;1.72;1.60;;;22.00;76.90;;;;;;934569;148;27433;-80
2022/10/23 11:28:23;;;;;;;2.30;1.57;;;21.90;76.80;;;;;;934775;148;27338;-80
2022/10/23 11:30:55;;;;;;;1.70;1.60;;;21.70;77.10;;;;;;935861;148;27290;-80
2022/10/23 11:33:25;;;;;;;1.67;1.45;;;21.60;77.30;;;;;;936212;148;27276;-80
2022/10/23 11:35:51;;;;;;;2.50;2.10;;;21.60;77.90;;;;;;933109;148;27360;-80
2022/10/23 11:38:18;;;;;;;2.70;1.92;;;21.50;78.60;;;;;;934226;148;27471;-80
2022/10/23 11:40:48;;;;;;;3.10;2.25;;;21.50;79.20;;;;;;936323;148;27330;-80
2022/10/23 11:43:14;;;;;;;1.92;1.82;;;21.50;80.00;;;;;;932911;148;27391;-81
2022/10/23 11:45:41;;;;;;;2.72;1.92;;;21.50;80.40;;;;;;932333;148;27337;-80
2022/10/23 11:48:13;;;;;;;5.75;1.70;;;21.60;80.60;;;;;;933882;148;27401;-80
2022/10/23 11:50:46;;;;;;;2.90;1.87;;;21.70;80.40;;;;;;935230;148;27535;-80
2022/10/23 11:53:27;;;;;;;2.37;1.62;;;21.70;80.30;;;;;;935126;149;27369;-79
2022/10/23 11:55:59;;;;;;;1.67;1.57;;;21.80;80.00;;;;;;934311;149;27343;-80
2022/10/23 11:58:41;;;;;;;2.52;1.57;;;21.90;79.90;;;;;;936729;149;27271;-80
2022/10/23 12:01:29;;;;;;;1.00;1.00;;;21.90;79.80;;;;;;933027;151;27336;-80
2022/10/23 12:03:59;;;;;;;3.77;1.47;;;22.00;79.80;;;;;;936068;149;27342;-80
2022/10/23 12:06:31;;;;;;;1.40;1.30;;;22.00;79.60;;;;;;935648;148;27419;-80
2022/10/23 12:09:00;;;;;;;1.70;1.52;;;22.10;79.80;;;;;;936128;151;27318;-80
2022/10/23 12:11:27;;;;;;;2.33;2.15;;;22.20;79.60;;;;;;936581;149;27359;-80
2022/10/23 12:13:53;;;;;;;4.20;2.12;;;22.30;79.40;;;;;;932985;151;27294;-80
2022/10/23 12:16:20;;;;;;;1.42;1.32;;;22.30;79.10;;;;;;936951;148;27428;-79
2022/10/23 12:18:46;;;;;;;2.00;1.57;;;22.50;78.80;;;;;;935698;148;27366;-80
2022/10/23 12:21:16;;;;;;;1.70;1.60;;;22.50;78.40;;;;;;922984;154;27414;-80
2022/10/23 12:23:48;;;;;;;1.37;1.27;;;22.60;77.90;;;;;;918752;154;27415;-80
2022/10/23 12:26:33;;;;;;;1.67;1.57;;;22.60;77.60;;;;;;936071;148;27891;-80
2022/10/23 12:29:23;;;;;;;1.52;1.42;;;22.70;77.50;;;;;;934693;149;27353;-80
2022/10/23 12:31:58;;;;;;;1.40;1.30;;;22.70;77.50;;;;;;934824;151;27406;-79
2022/10/23 12:34:47;;;;;;;2.10;1.45;;;22.80;77.10;;;;;;934351;151;27336;-79
2022/10/23 12:37:36;;;;;;;2.90;1.80;;;22.80;76.80;;;;;;936125;149;27386;-79
2022/10/23 12:40:01;;;;;;;1.47;1.37;;;22.90;76.40;;;;;;936309;151;27956;-79
2022/10/23 12:42:28;;;;;;;1.70;1.60;;;22.90;76.00;;;;;;933909;149;27371;-79
2022/10/23 12:44:57;;;;;;;3.10;1.32;;;22.90;75.50;;;;;;936089;149;27494;-79
2022/10/23 12:47:23;;;;;;;1.22;1.20;;;22.90;75.30;;;;;;935026;148;27409;-79
2022/10/23 12:49:51;;;;;;;3.42;1.37;;;22.80;75.20;;;;;;935843;149;27277;-79
2022/10/23 12:52:17;;;;;;;1.32;1.20;;;22.80;74.70;;;;;;934986;151;27738;-79
2022/10/23 12:54:43;;;;;;;3.30;1.40;;;22.80;74.70;;;;;;933617;151;27363;-79
2022/10/23 12:57:19;;;;;;;1.30;1.27;;;22.70;74.40;;;;;;934596;151;27456;-79
2022/10/23 12:59:45;;;;;;;1.90;1.60;;;22.70;74.40;;;;;;928870;151;27323;-79